createdAt,value
2022-11-05T00:00:22.268Z,1003.16
2022-11-05T00:01:22.569Z,1003.17
2022-11-05T00:02:22.865Z,1003.18
2022-11-05T00:03:22.683Z,1003.18
2022-11-05T00:04:30.702Z,1003.15
2022-11-05T00:05:22.517Z,1003.17
2022-11-05T00:06:22.818Z,1003.17
2022-11-05T00:07:23.062Z,1003.18
2022-11-05T00:08:22.787Z,1003.19
2022-11-05T00:09:22.474Z,1003.21
2022-11-05T00:10:22.108Z,1003.25
2022-11-05T00:11:22.414Z,1003.21
2022-11-05T00:12:22.131Z,1003.28
2022-11-05T00:13:22.380Z,1003.27
2022-11-05T00:14:22.089Z,1003.25
2022-11-05T00:15:22.393Z,1003.27
2022-11-05T00:16:22.047Z,1003.31
2022-11-05T00:17:22.182Z,1003.24
2022-11-05T00:18:22.045Z,1003.27
2022-11-05T00:19:22.066Z,1003.35
2022-11-05T00:20:22.044Z,1003.36
2022-11-05T00:21:22.355Z,1003.34
2022-11-05T00:22:22.054Z,1003.34
2022-11-05T00:23:22.049Z,1003.37
2022-11-05T00:24:26.724Z,1003.35
2022-11-05T00:25:22.074Z,1003.39
2022-11-05T00:26:22.055Z,1003.38
2022-11-05T00:27:22.153Z,1003.36
2022-11-05T00:28:22.394Z,1003.43
2022-11-05T00:29:22.185Z,1003.43
2022-11-05T00:30:22.049Z,1003.43
2022-11-05T00:31:22.065Z,1003.48
2022-11-05T00:32:22.059Z,1003.5
2022-11-05T00:33:22.050Z,1003.51
2022-11-05T00:34:22.045Z,1003.52
2022-11-05T00:35:22.048Z,1003.54
2022-11-05T00:36:22.052Z,1003.52
2022-11-05T00:37:22.067Z,1003.53
2022-11-05T00:38:22.060Z,1003.53
2022-11-05T00:39:22.074Z,1003.53
2022-11-05T00:40:22.079Z,1003.55
2022-11-05T00:41:22.060Z,1003.57
2022-11-05T00:42:22.055Z,1003.54
2022-11-05T00:43:22.057Z,1003.49
2022-11-05T00:44:22.059Z,1003.55
2022-11-05T00:45:22.060Z,1003.56
2022-11-05T00:46:22.069Z,1003.54
2022-11-05T00:47:22.050Z,1003.58
2022-11-05T00:48:22.063Z,1003.58
2022-11-05T00:49:22.057Z,1003.59
2022-11-05T00:50:22.052Z,1003.66
2022-11-05T00:51:22.191Z,1003.63
2022-11-05T00:52:22.285Z,1003.68
2022-11-05T00:53:22.047Z,1003.71
2022-11-05T00:54:22.057Z,1003.68
2022-11-05T00:55:22.054Z,1003.71
2022-11-05T00:56:22.060Z,1003.67
2022-11-05T00:57:22.060Z,1003.69
2022-11-05T00:58:22.072Z,1003.7
2022-11-05T00:59:22.058Z,1003.74
2022-11-05T01:00:22.063Z,1003.73
2022-11-05T01:01:22.139Z,1003.82
2022-11-05T01:02:22.174Z,1003.8
2022-11-05T01:03:22.288Z,1003.86
2022-11-05T01:04:22.051Z,1003.83
2022-11-05T01:05:22.054Z,1003.85
2022-11-05T01:06:22.058Z,1003.89
2022-11-05T01:07:22.058Z,1003.94
2022-11-05T01:08:22.060Z,1003.91
2022-11-05T01:09:22.147Z,1003.89
2022-11-05T01:10:22.055Z,1003.91
2022-11-05T01:11:22.061Z,1003.89
2022-11-05T01:12:22.173Z,1003.93
2022-11-05T01:13:22.049Z,1003.95
2022-11-05T01:14:22.065Z,1003.95
2022-11-05T01:15:22.069Z,1003.96
2022-11-05T01:16:22.049Z,1003.96
2022-11-05T01:17:22.043Z,1003.96
2022-11-05T01:18:22.053Z,1003.94
2022-11-05T01:19:22.046Z,1003.96
2022-11-05T01:20:22.043Z,1003.96
2022-11-05T01:21:22.051Z,1003.97
2022-11-05T01:22:22.052Z,1003.99
2022-11-05T01:23:23.089Z,1004.01
2022-11-05T01:24:22.123Z,1003.99
2022-11-05T01:25:22.060Z,1004
2022-11-05T01:26:22.058Z,1004
2022-11-05T01:27:22.056Z,1003.99
2022-11-05T01:28:22.112Z,1004
2022-11-05T01:29:22.038Z,1004
2022-11-05T01:30:22.034Z,1004
2022-11-05T01:31:22.256Z,1004.01
2022-11-05T01:32:22.358Z,1003.99
2022-11-05T01:33:22.650Z,1004.03
2022-11-05T01:34:21.886Z,1004.07
2022-11-05T01:35:22.368Z,1004.05
2022-11-05T01:36:22.718Z,1004.09
2022-11-05T01:37:21.884Z,1004.1
2022-11-05T01:38:22.368Z,1004.08
2022-11-05T01:39:22.441Z,1004.09
2022-11-05T01:40:22.774Z,1004.08
2022-11-05T01:41:22.103Z,1004.08
2022-11-05T01:42:22.403Z,1004.09
2022-11-05T01:43:22.633Z,1004.11
2022-11-05T01:44:22.039Z,1004.04
2022-11-05T01:45:22.254Z,1004.1
2022-11-05T01:46:22.084Z,1004.06
2022-11-05T01:47:22.172Z,1004.08
2022-11-05T01:48:22.062Z,1004.11
2022-11-05T01:49:22.294Z,1004.12
2022-11-05T01:50:22.036Z,1004.16
2022-11-05T01:51:22.103Z,1004.17
2022-11-05T01:52:22.060Z,1004.16
2022-11-05T01:53:22.066Z,1004.17
2022-11-05T01:54:22.052Z,1004.21
2022-11-05T01:55:22.061Z,1004.19
2022-11-05T01:56:22.062Z,1004.2
2022-11-05T01:57:22.154Z,1004.18
2022-11-05T01:58:22.136Z,1004.21
2022-11-05T01:59:22.060Z,1004.18
2022-11-05T02:00:22.274Z,1004.18
2022-11-05T02:01:22.214Z,1004.19
2022-11-05T02:02:22.230Z,1004.2
2022-11-05T02:03:22.057Z,1004.22
2022-11-05T02:04:22.063Z,1004.24
2022-11-05T02:05:22.059Z,1004.2
2022-11-05T02:06:22.073Z,1004.19
2022-11-05T02:07:22.049Z,1004.22
2022-11-05T02:08:22.052Z,1004.23
2022-11-05T02:09:22.063Z,1004.22
2022-11-05T02:10:22.158Z,1004.23
2022-11-05T02:11:22.098Z,1004.24
2022-11-05T02:12:22.051Z,1004.22
2022-11-05T02:13:22.046Z,1004.25
2022-11-05T02:14:22.069Z,1004.29
2022-11-05T02:15:22.047Z,1004.26
2022-11-05T02:16:22.086Z,1004.28
2022-11-05T02:17:22.058Z,1004.27
2022-11-05T02:18:22.053Z,1004.31
2022-11-05T02:19:22.060Z,1004.31
2022-11-05T02:20:22.244Z,1004.31
2022-11-05T02:21:22.155Z,1004.34
2022-11-05T02:22:22.073Z,1004.38
2022-11-05T02:23:22.118Z,1004.33
2022-11-05T02:24:22.060Z,1004.35
2022-11-05T02:25:22.053Z,1004.35
2022-11-05T02:26:22.095Z,1004.37
2022-11-05T02:27:22.307Z,1004.37
2022-11-05T02:28:22.065Z,1004.37
2022-11-05T02:29:22.048Z,1004.38
2022-11-05T02:30:22.209Z,1004.4
2022-11-05T02:31:22.086Z,1004.4
2022-11-05T02:32:22.058Z,1004.38
2022-11-05T02:33:22.053Z,1004.41
2022-11-05T02:34:22.132Z,1004.45
2022-11-05T02:35:22.059Z,1004.51
2022-11-05T02:36:22.069Z,1004.51
2022-11-05T02:37:22.047Z,1004.49
2022-11-05T02:38:22.052Z,1004.49
2022-11-05T02:39:22.056Z,1004.49
2022-11-05T02:40:22.062Z,1004.48
2022-11-05T02:41:22.048Z,1004.49
2022-11-05T02:42:22.051Z,1004.5
2022-11-05T02:43:22.122Z,1004.52
2022-11-05T02:44:22.065Z,1004.53
2022-11-05T02:45:22.068Z,1004.55
2022-11-05T02:46:22.071Z,1004.57
2022-11-05T02:47:22.058Z,1004.58
2022-11-05T02:48:22.093Z,1004.55
2022-11-05T02:49:22.057Z,1004.56
2022-11-05T02:50:22.060Z,1004.54
2022-11-05T02:51:22.060Z,1004.55
2022-11-05T02:52:22.048Z,1004.55
2022-11-05T02:53:22.060Z,1004.52
2022-11-05T02:54:22.511Z,1004.5
2022-11-05T02:55:22.209Z,1004.49
2022-11-05T02:56:22.332Z,1004.47
2022-11-05T02:57:22.167Z,1004.53
2022-11-05T02:58:22.158Z,1004.52
2022-11-05T02:59:22.427Z,1004.51
2022-11-05T03:00:22.061Z,1004.48
2022-11-05T03:01:22.313Z,1004.49
2022-11-05T03:02:22.330Z,1004.56
2022-11-05T03:03:22.330Z,1004.49
2022-11-05T03:04:22.169Z,1004.52
2022-11-05T03:05:22.176Z,1004.53
2022-11-05T03:06:22.484Z,1004.52
2022-11-05T03:07:22.452Z,1004.48
2022-11-05T03:08:22.375Z,1004.5
2022-11-05T03:09:22.677Z,1004.53
2022-11-05T03:10:22.945Z,1004.52
2022-11-05T03:11:22.045Z,1004.58
2022-11-05T03:12:22.345Z,1004.53
2022-11-05T03:13:22.201Z,1004.51
2022-11-05T03:14:22.060Z,1004.53
2022-11-05T03:15:22.324Z,1004.52
2022-11-05T03:16:22.108Z,1004.54
2022-11-05T03:17:22.424Z,1004.55
2022-11-05T03:18:22.192Z,1004.61
2022-11-05T03:19:22.504Z,1004.6
2022-11-05T03:20:22.359Z,1004.65
2022-11-05T03:21:22.528Z,1004.65
2022-11-05T03:22:22.862Z,1004.64
2022-11-05T03:23:22.278Z,1004.64
2022-11-05T03:24:22.050Z,1004.63
2022-11-05T03:25:22.272Z,1004.64
2022-11-05T03:26:22.053Z,1004.66
2022-11-05T03:27:22.278Z,1004.66
2022-11-05T03:28:22.057Z,1004.66
2022-11-05T03:29:22.278Z,1004.67
2022-11-05T03:30:22.073Z,1004.68
2022-11-05T03:31:22.072Z,1004.72
2022-11-05T03:32:22.061Z,1004.68
2022-11-05T03:33:22.197Z,1004.7
2022-11-05T03:34:22.048Z,1004.74
2022-11-05T03:35:22.285Z,1004.75
2022-11-05T03:36:22.046Z,1004.7
2022-11-05T03:37:22.062Z,1004.74
2022-11-05T03:38:22.188Z,1004.74
2022-11-05T03:39:22.066Z,1004.77
2022-11-05T03:40:22.053Z,1004.75
2022-11-05T03:41:22.088Z,1004.74
2022-11-05T03:42:22.385Z,1004.79
2022-11-05T03:43:22.069Z,1004.8
2022-11-05T03:44:22.082Z,1004.78
2022-11-05T03:45:22.054Z,1004.81
2022-11-05T03:46:22.043Z,1004.88
2022-11-05T03:47:22.055Z,1004.88
2022-11-05T03:48:22.079Z,1004.87
2022-11-05T03:49:22.056Z,1004.87
2022-11-05T03:50:22.063Z,1004.89
2022-11-05T03:51:22.048Z,1004.88
2022-11-05T03:52:22.047Z,1004.89
2022-11-05T03:53:22.129Z,1004.86
2022-11-05T03:54:22.055Z,1004.87
2022-11-05T03:55:22.068Z,1004.9
2022-11-05T03:56:22.065Z,1004.92
2022-11-05T03:57:22.287Z,1004.89
2022-11-05T03:58:22.080Z,1004.85
2022-11-05T03:59:22.054Z,1004.85
2022-11-05T04:00:22.067Z,1004.87
2022-11-05T04:01:22.194Z,1004.89
2022-11-05T04:02:22.182Z,1004.87
2022-11-05T04:03:22.053Z,1004.94
2022-11-05T04:04:22.061Z,1004.94
2022-11-05T04:05:22.059Z,1004.94
2022-11-05T04:06:22.057Z,1004.96
2022-11-05T04:07:22.061Z,1004.97
2022-11-05T04:08:22.062Z,1004.96
2022-11-05T04:09:22.057Z,1004.97
2022-11-05T04:10:22.041Z,1004.99
2022-11-05T04:11:22.051Z,1005
2022-11-05T04:12:22.056Z,1005.01
2022-11-05T04:13:22.067Z,1005.01
2022-11-05T04:14:22.037Z,1005.05
2022-11-05T04:15:22.054Z,1005.04
2022-11-05T04:16:22.070Z,1005.05
2022-11-05T04:17:22.060Z,1005.02
2022-11-05T04:18:22.041Z,1005.03
2022-11-05T04:19:28.069Z,1005
2022-11-05T04:20:22.244Z,1005.01
2022-11-05T04:21:22.053Z,1005.08
2022-11-05T04:22:22.056Z,1005.03
2022-11-05T04:23:22.055Z,1005.06
2022-11-05T04:24:22.063Z,1005.06
2022-11-05T04:25:22.065Z,1005.04
2022-11-05T04:26:22.062Z,1005.06
2022-11-05T04:27:22.060Z,1005.06
2022-11-05T04:28:22.090Z,1005.04
2022-11-05T04:29:22.056Z,1005.05
2022-11-05T04:30:22.057Z,1005.03
2022-11-05T04:31:22.051Z,1005.06
2022-11-05T04:32:22.302Z,1005.06
2022-11-05T04:33:22.049Z,1005.09
2022-11-05T04:34:22.153Z,1005.03
2022-11-05T04:35:22.044Z,1005.06
2022-11-05T04:36:22.041Z,1005.06
2022-11-05T04:37:22.060Z,1005.05
2022-11-05T04:38:22.052Z,1005.08
2022-11-05T04:39:22.060Z,1005.07
2022-11-05T04:40:22.055Z,1005.12
2022-11-05T04:41:22.082Z,1005.15
2022-11-05T04:42:22.176Z,1005.1
2022-11-05T04:43:22.410Z,1005.11
2022-11-05T04:44:22.079Z,1005.12
2022-11-05T04:45:22.052Z,1005.12
2022-11-05T04:46:22.050Z,1005.08
2022-11-05T04:47:22.333Z,1005.11
2022-11-05T04:48:22.410Z,1005.12
2022-11-05T04:49:22.682Z,1005.08
2022-11-05T04:50:22.021Z,1005.16
2022-11-05T04:51:22.255Z,1005.16
2022-11-05T04:52:22.596Z,1005.2
2022-11-05T04:53:22.850Z,1005.14
2022-11-05T04:54:23.207Z,1005.19
2022-11-05T04:55:22.520Z,1005.17
2022-11-05T04:56:21.848Z,1005.15
2022-11-05T04:57:22.148Z,1005.21
2022-11-05T04:58:22.498Z,1005.15
2022-11-05T04:59:22.700Z,1005.17
2022-11-05T05:00:22.196Z,1005.17
2022-11-05T05:01:22.105Z,1005.21
2022-11-05T05:02:22.111Z,1005.19
2022-11-05T05:03:22.076Z,1005.13
2022-11-05T05:04:22.063Z,1005.2
2022-11-05T05:05:22.065Z,1005.19
2022-11-05T05:06:22.171Z,1005.17
2022-11-05T05:07:22.163Z,1005.19
2022-11-05T05:08:22.058Z,1005.2
2022-11-05T05:09:22.040Z,1005.21
2022-11-05T05:10:22.047Z,1005.22
2022-11-05T05:11:22.055Z,1005.26
2022-11-05T05:12:22.058Z,1005.25
2022-11-05T05:13:22.079Z,1005.2
2022-11-05T05:14:22.060Z,1005.24
2022-11-05T05:15:22.074Z,1005.22
2022-11-05T05:16:22.114Z,1005.27
2022-11-05T05:17:22.046Z,1005.23
2022-11-05T05:18:22.073Z,1005.29
2022-11-05T05:19:22.276Z,1005.24
2022-11-05T05:20:22.050Z,1005.26
2022-11-05T05:21:22.053Z,1005.27
2022-11-05T05:22:22.066Z,1005.27
2022-11-05T05:23:22.079Z,1005.28
2022-11-05T05:24:22.052Z,1005.31
2022-11-05T05:25:22.083Z,1005.29
2022-11-05T05:26:22.053Z,1005.28
2022-11-05T05:27:22.163Z,1005.27
2022-11-05T05:28:22.040Z,1005.28
2022-11-05T05:29:22.067Z,1005.31
2022-11-05T05:30:22.088Z,1005.26
2022-11-05T05:31:22.166Z,1005.27
2022-11-05T05:32:22.079Z,1005.29
2022-11-05T05:33:22.333Z,1005.3
2022-11-05T05:34:22.073Z,1005.33
2022-11-05T05:35:22.330Z,1005.32
2022-11-05T05:36:22.195Z,1005.34
2022-11-05T05:37:22.538Z,1005.3
2022-11-05T05:38:22.179Z,1005.31
2022-11-05T05:39:22.095Z,1005.31
2022-11-05T05:40:22.461Z,1005.33
2022-11-05T05:41:22.086Z,1005.28
2022-11-05T05:42:22.365Z,1005.32
2022-11-05T05:43:22.365Z,1005.34
2022-11-05T05:44:22.657Z,1005.35
2022-11-05T05:45:22.845Z,1005.36
2022-11-05T05:46:22.050Z,1005.39
2022-11-05T05:47:22.060Z,1005.4
2022-11-05T05:48:22.071Z,1005.41
2022-11-05T05:49:22.041Z,1005.43
2022-11-05T05:50:22.057Z,1005.47
2022-11-05T05:51:22.193Z,1005.47
2022-11-05T05:52:22.097Z,1005.47
2022-11-05T05:53:22.084Z,1005.48
2022-11-05T05:54:22.925Z,1005.51
2022-11-05T05:55:22.055Z,1005.53
2022-11-05T05:56:22.060Z,1005.49
2022-11-05T05:57:22.047Z,1005.55
2022-11-05T05:58:22.072Z,1005.56
2022-11-05T05:59:22.049Z,1005.6
2022-11-05T06:00:22.049Z,1005.6
2022-11-05T06:01:23.103Z,1005.63
2022-11-05T06:02:22.149Z,1005.62
2022-11-05T06:03:22.057Z,1005.67
2022-11-05T06:04:22.070Z,1005.66
2022-11-05T06:05:22.340Z,1005.65
2022-11-05T06:06:22.059Z,1005.64
2022-11-05T06:07:22.303Z,1005.64
2022-11-05T06:08:22.400Z,1005.66
2022-11-05T06:09:22.047Z,1005.64
2022-11-05T06:10:22.182Z,1005.62
2022-11-05T06:11:22.161Z,1005.68
2022-11-05T06:12:22.353Z,1005.69
2022-11-05T06:13:22.134Z,1005.68
2022-11-05T06:14:22.101Z,1005.72
2022-11-05T06:15:22.256Z,1005.77
2022-11-05T06:16:22.532Z,1005.75
2022-11-05T06:17:22.902Z,1005.77
2022-11-05T06:18:22.368Z,1005.76
2022-11-05T06:19:22.055Z,1005.78
2022-11-05T06:20:22.062Z,1005.79
2022-11-05T06:21:22.056Z,1005.78
2022-11-05T06:22:22.054Z,1005.81
2022-11-05T06:23:22.076Z,1005.84
2022-11-05T06:24:22.308Z,1005.83
2022-11-05T06:25:22.062Z,1005.87
2022-11-05T06:26:22.325Z,1005.85
2022-11-05T06:27:22.157Z,1005.91
2022-11-05T06:28:22.461Z,1005.92
2022-11-05T06:29:22.155Z,1005.95
2022-11-05T06:30:22.137Z,1005.96
2022-11-05T06:31:22.360Z,1005.98
2022-11-05T06:32:22.690Z,1005.97
2022-11-05T06:33:22.368Z,1005.98
2022-11-05T06:34:22.286Z,1005.98
2022-11-05T06:35:22.553Z,1006
2022-11-05T06:36:22.250Z,1005.98
2022-11-05T06:37:22.520Z,1005.97
2022-11-05T06:38:22.869Z,1006.02
2022-11-05T06:39:22.420Z,1006.05
2022-11-05T06:40:22.820Z,1006.04
2022-11-05T06:41:22.509Z,1006.04
2022-11-05T06:42:22.407Z,1006.07
2022-11-05T06:43:22.045Z,1006.04
2022-11-05T06:44:22.083Z,1006.06
2022-11-05T06:45:22.353Z,1006.04
2022-11-05T06:46:22.069Z,1006.07
2022-11-05T06:47:22.050Z,1006.1
2022-11-05T06:48:22.169Z,1006.13
2022-11-05T06:49:22.225Z,1006.13
2022-11-05T06:50:22.282Z,1006.15
2022-11-05T06:51:22.053Z,1006.14
2022-11-05T06:52:22.053Z,1006.18
2022-11-05T06:53:22.173Z,1006.23
2022-11-05T06:54:22.086Z,1006.19
2022-11-05T06:55:22.060Z,1006.21
2022-11-05T06:56:22.065Z,1006.26
2022-11-05T06:57:22.339Z,1006.26
2022-11-05T06:58:22.084Z,1006.25
2022-11-05T06:59:22.041Z,1006.25
2022-11-05T07:00:22.048Z,1006.26
2022-11-05T07:01:22.279Z,1006.3
2022-11-05T07:02:22.136Z,1006.3
2022-11-05T07:03:22.213Z,1006.28
2022-11-05T07:04:22.048Z,1006.32
2022-11-05T07:05:22.048Z,1006.31
2022-11-05T07:06:22.043Z,1006.35
2022-11-05T07:07:22.059Z,1006.32
2022-11-05T07:08:22.074Z,1006.32
2022-11-05T07:09:22.054Z,1006.36
2022-11-05T07:10:22.044Z,1006.38
2022-11-05T07:11:22.037Z,1006.41
2022-11-05T07:12:22.058Z,1006.43
2022-11-05T07:13:22.149Z,1006.42
2022-11-05T07:14:22.054Z,1006.4
2022-11-05T07:15:22.172Z,1006.43
2022-11-05T07:16:22.089Z,1006.43
2022-11-05T07:17:22.051Z,1006.47
2022-11-05T07:18:22.066Z,1006.52
2022-11-05T07:19:22.050Z,1006.48
2022-11-05T07:20:22.114Z,1006.48
2022-11-05T07:21:22.180Z,1006.48
2022-11-05T07:22:22.065Z,1006.47
2022-11-05T07:23:22.045Z,1006.47
2022-11-05T07:24:22.056Z,1006.48
2022-11-05T07:25:22.174Z,1006.52
2022-11-05T07:26:22.184Z,1006.46
2022-11-05T07:27:22.049Z,1006.49
2022-11-05T07:28:22.049Z,1006.54
2022-11-05T07:29:22.044Z,1006.53
2022-11-05T07:30:22.049Z,1006.53
2022-11-05T07:31:22.041Z,1006.55
2022-11-05T07:32:22.059Z,1006.59
2022-11-05T07:33:22.058Z,1006.57
2022-11-05T07:34:22.042Z,1006.58
2022-11-05T07:35:22.059Z,1006.56
2022-11-05T07:36:22.079Z,1006.56
2022-11-05T07:37:22.147Z,1006.58
2022-11-05T07:38:22.056Z,1006.61
2022-11-05T07:39:22.057Z,1006.61
2022-11-05T07:40:22.057Z,1006.59
2022-11-05T07:41:22.051Z,1006.62
2022-11-05T07:42:22.056Z,1006.61
2022-11-05T07:43:22.047Z,1006.65
2022-11-05T07:44:22.053Z,1006.63
2022-11-05T07:45:22.052Z,1006.63
2022-11-05T07:46:22.181Z,1006.65
2022-11-05T07:47:22.057Z,1006.65
2022-11-05T07:48:22.063Z,1006.65
2022-11-05T07:49:22.096Z,1006.66
2022-11-05T07:50:22.058Z,1006.65
2022-11-05T07:51:22.043Z,1006.68
2022-11-05T07:52:22.048Z,1006.67
2022-11-05T07:53:22.064Z,1006.68
2022-11-05T07:54:22.051Z,1006.7
2022-11-05T07:55:22.142Z,1006.69
2022-11-05T07:56:22.036Z,1006.74
2022-11-05T07:57:22.330Z,1006.72
2022-11-05T07:58:22.043Z,1006.77
2022-11-05T07:59:22.049Z,1006.83
2022-11-05T08:00:22.032Z,1006.82
2022-11-05T08:01:22.803Z,1006.85
2022-11-05T08:02:22.537Z,1006.84
2022-11-05T08:03:22.844Z,1006.84
2022-11-05T08:04:21.975Z,1006.84
2022-11-05T08:05:22.350Z,1006.85
2022-11-05T08:06:22.577Z,1006.88
2022-11-05T08:07:21.964Z,1006.91
2022-11-05T08:08:22.211Z,1006.87
2022-11-05T08:09:22.553Z,1006.83
2022-11-05T08:10:22.865Z,1006.86
2022-11-05T08:11:22.206Z,1006.84
2022-11-05T08:12:22.531Z,1006.82
2022-11-05T08:13:23.088Z,1006.87
2022-11-05T08:14:22.061Z,1006.89
2022-11-05T08:15:22.073Z,1006.87
2022-11-05T08:16:22.200Z,1006.86
2022-11-05T08:17:22.052Z,1006.86
2022-11-05T08:18:22.051Z,1006.8
2022-11-05T08:19:22.057Z,1006.84
2022-11-05T08:20:22.069Z,1006.79
2022-11-05T08:21:22.044Z,1006.8
2022-11-05T08:22:22.047Z,1006.77
2022-11-05T08:23:22.054Z,1006.78
2022-11-05T08:24:22.062Z,1006.77
2022-11-05T08:25:22.053Z,1006.76
2022-11-05T08:26:22.059Z,1006.76
2022-11-05T08:27:22.048Z,1006.76
2022-11-05T08:28:22.038Z,1006.8
2022-11-05T08:29:22.065Z,1006.82
2022-11-05T08:30:22.058Z,1006.81
2022-11-05T08:31:22.060Z,1006.8
2022-11-05T08:32:22.065Z,1006.78
2022-11-05T08:33:22.048Z,1006.8
2022-11-05T08:34:22.198Z,1006.79
2022-11-05T08:35:22.224Z,1006.79
2022-11-05T08:36:22.124Z,1006.79
2022-11-05T08:37:22.049Z,1006.79
2022-11-05T08:38:22.044Z,1006.81
2022-11-05T08:39:22.049Z,1006.82
2022-11-05T08:40:22.064Z,1006.75
2022-11-05T08:41:22.063Z,1006.73
2022-11-05T08:42:22.049Z,1006.77
2022-11-05T08:43:22.048Z,1006.74
2022-11-05T08:44:22.060Z,1006.77
2022-11-05T08:45:22.119Z,1006.77
2022-11-05T08:46:22.062Z,1006.81
2022-11-05T08:47:22.260Z,1006.81
2022-11-05T08:48:22.863Z,1006.82
2022-11-05T08:49:22.331Z,1006.83
2022-11-05T08:50:22.115Z,1006.82
2022-11-05T08:51:22.496Z,1006.82
2022-11-05T08:52:22.115Z,1006.79
2022-11-05T08:53:22.067Z,1006.81
2022-11-05T08:54:22.360Z,1006.82
2022-11-05T08:55:22.073Z,1006.86
2022-11-05T08:56:22.358Z,1006.82
2022-11-05T08:57:22.263Z,1006.78
2022-11-05T08:58:22.074Z,1006.8
2022-11-05T08:59:22.229Z,1006.84
2022-11-05T09:00:22.044Z,1006.83
2022-11-05T09:01:22.148Z,1006.84
2022-11-05T09:02:22.176Z,1006.85
2022-11-05T09:03:22.045Z,1006.85
2022-11-05T09:04:22.088Z,1006.84
2022-11-05T09:05:22.057Z,1006.83
2022-11-05T09:06:22.043Z,1006.88
2022-11-05T09:07:22.073Z,1006.86
2022-11-05T09:08:22.051Z,1006.85
2022-11-05T09:09:22.166Z,1006.89
2022-11-05T09:10:22.051Z,1006.88
2022-11-05T09:11:22.056Z,1006.87
2022-11-05T09:12:22.262Z,1006.86
2022-11-05T09:13:23.355Z,1006.82
2022-11-05T09:14:22.239Z,1006.89
2022-11-05T09:15:22.187Z,1006.87
2022-11-05T09:16:22.297Z,1006.88
2022-11-05T09:17:22.092Z,1006.89
2022-11-05T09:18:22.086Z,1006.83
2022-11-05T09:19:22.194Z,1006.87
2022-11-05T09:20:22.042Z,1006.88
2022-11-05T09:21:22.339Z,1006.91
2022-11-05T09:22:22.344Z,1006.91
2022-11-05T09:23:22.345Z,1006.94
2022-11-05T09:24:22.256Z,1006.96
2022-11-05T09:25:22.548Z,1006.92
2022-11-05T09:26:22.055Z,1006.94
2022-11-05T09:27:22.056Z,1006.91
2022-11-05T09:28:22.071Z,1006.89
2022-11-05T09:29:22.058Z,1006.94
2022-11-05T09:30:22.047Z,1006.98
2022-11-05T09:31:22.053Z,1007.03
2022-11-05T09:32:22.054Z,1007.02
2022-11-05T09:33:22.207Z,1007.02
2022-11-05T09:34:22.052Z,1006.97
2022-11-05T09:35:22.055Z,1007.02
2022-11-05T09:36:22.057Z,1006.99
2022-11-05T09:37:22.055Z,1007.04
2022-11-05T09:38:22.041Z,1007.01
2022-11-05T09:39:22.369Z,1007.01
2022-11-05T09:40:22.054Z,1007.06
2022-11-05T09:41:22.433Z,1007.08
2022-11-05T09:42:22.164Z,1007.12
2022-11-05T09:43:24.073Z,1007.1
2022-11-05T09:44:22.178Z,1007.08
2022-11-05T09:45:22.477Z,1007.1
2022-11-05T09:46:22.466Z,1007.08
2022-11-05T09:47:22.334Z,1007.07
2022-11-05T09:48:22.446Z,1007.09
2022-11-05T09:49:22.293Z,1007.1
2022-11-05T09:50:22.126Z,1007.08
2022-11-05T09:51:26.458Z,1007.07
2022-11-05T09:52:22.620Z,1007.15
2022-11-05T09:53:22.444Z,1007.12
2022-11-05T09:54:22.643Z,1007.1
2022-11-05T09:55:22.951Z,1007.1
2022-11-05T09:56:22.037Z,1007.11
2022-11-05T09:57:22.229Z,1007.1
2022-11-05T09:58:28.805Z,1007.14
2022-11-05T09:59:22.051Z,1007.11
2022-11-05T10:00:22.246Z,1007.11
2022-11-05T10:01:22.369Z,1007.11
2022-11-05T10:02:22.129Z,1007.1
2022-11-05T10:03:22.040Z,1007.11
2022-11-05T10:04:22.181Z,1007.14
2022-11-05T10:05:22.079Z,1007.15
2022-11-05T10:06:22.062Z,1007.16
2022-11-05T10:07:22.056Z,1007.18
2022-11-05T10:08:22.275Z,1007.19
2022-11-05T10:09:22.106Z,1007.22
2022-11-05T10:10:22.098Z,1007.2
2022-11-05T10:11:22.203Z,1007.22
2022-11-05T10:12:22.623Z,1007.2
2022-11-05T10:13:22.044Z,1007.26
2022-11-05T10:14:22.041Z,1007.26
2022-11-05T10:15:22.066Z,1007.29
2022-11-05T10:16:22.062Z,1007.28
2022-11-05T10:17:22.172Z,1007.3
2022-11-05T10:18:22.057Z,1007.27
2022-11-05T10:19:22.133Z,1007.3
2022-11-05T10:20:22.143Z,1007.31
2022-11-05T10:21:59.963Z,1007.35
2022-11-05T10:22:22.087Z,1007.31
2022-11-05T10:23:22.131Z,1007.28
2022-11-05T10:24:22.037Z,1007.29
2022-11-05T10:25:22.053Z,1007.3
2022-11-05T10:26:22.063Z,1007.31
2022-11-05T10:27:22.056Z,1007.29
2022-11-05T10:28:22.064Z,1007.31
2022-11-05T10:29:22.059Z,1007.32
2022-11-05T10:30:22.052Z,1007.29
2022-11-05T10:31:22.050Z,1007.31
2022-11-05T10:32:22.200Z,1007.3
2022-11-05T10:33:22.059Z,1007.34
2022-11-05T10:34:22.045Z,1007.32
2022-11-05T10:35:22.057Z,1007.33
2022-11-05T10:36:22.037Z,1007.36
2022-11-05T10:37:22.049Z,1007.34
2022-11-05T10:38:22.049Z,1007.31
2022-11-05T10:39:22.060Z,1007.34
2022-11-05T10:40:22.071Z,1007.32
2022-11-05T10:41:22.047Z,1007.23
2022-11-05T10:42:22.154Z,1007.23
2022-11-05T10:43:22.046Z,1007.25
2022-11-05T10:44:22.043Z,1007.28
2022-11-05T10:45:22.067Z,1007.3
2022-11-05T10:46:22.264Z,1007.29
2022-11-05T10:47:22.052Z,1007.39
2022-11-05T10:48:22.049Z,1007.34
2022-11-05T10:49:22.059Z,1007.34
2022-11-05T10:50:22.047Z,1007.33
2022-11-05T10:51:22.065Z,1007.31
2022-11-05T10:52:22.054Z,1007.32
2022-11-05T10:53:22.053Z,1007.34
2022-11-05T10:54:22.156Z,1007.34
2022-11-05T10:55:22.047Z,1007.3
2022-11-05T10:56:22.053Z,1007.28
2022-11-05T10:57:22.067Z,1007.35
2022-11-05T10:58:22.048Z,1007.3
2022-11-05T10:59:22.058Z,1007.36
2022-11-05T11:00:22.047Z,1007.34
2022-11-05T11:01:22.146Z,1007.34
2022-11-05T11:02:22.122Z,1007.27
2022-11-05T11:03:22.054Z,1007.3
2022-11-05T11:04:22.057Z,1007.25
2022-11-05T11:05:22.044Z,1007.28
2022-11-05T11:06:22.064Z,1007.32
2022-11-05T11:07:22.048Z,1007.31
2022-11-05T11:08:22.059Z,1007.37
2022-11-05T11:09:22.114Z,1007.35
2022-11-05T11:10:22.059Z,1007.3
2022-11-05T11:11:22.057Z,1007.31
2022-11-05T11:12:22.050Z,1007.29
2022-11-05T11:13:22.054Z,1007.32
2022-11-05T11:14:22.071Z,1007.32
2022-11-05T11:15:22.046Z,1007.28
2022-11-05T11:16:22.162Z,1007.27
2022-11-05T11:17:22.606Z,1007.28
2022-11-05T11:18:22.538Z,1007.24
2022-11-05T11:19:21.787Z,1007.23
2022-11-05T11:20:22.129Z,1007.27
2022-11-05T11:21:22.375Z,1007.2
2022-11-05T11:22:22.717Z,1007.27
2022-11-05T11:23:21.941Z,1007.25
2022-11-05T11:24:22.332Z,1007.23
2022-11-05T11:25:22.574Z,1007.24
2022-11-05T11:26:22.005Z,1007.28
2022-11-05T11:27:22.228Z,1007.3
2022-11-05T11:28:22.570Z,1007.31
2022-11-05T11:29:22.711Z,1007.34
2022-11-05T11:30:22.141Z,1007.34
2022-11-05T11:31:22.365Z,1007.34
2022-11-05T11:32:22.054Z,1007.37
2022-11-05T11:33:22.062Z,1007.36
2022-11-05T11:34:22.050Z,1007.4
2022-11-05T11:35:22.050Z,1007.4
2022-11-05T11:36:22.061Z,1007.42
2022-11-05T11:37:22.064Z,1007.34
2022-11-05T11:38:22.062Z,1007.37
2022-11-05T11:39:22.083Z,1007.4
2022-11-05T11:40:22.049Z,1007.37
2022-11-05T11:41:22.058Z,1007.41
2022-11-05T11:42:22.148Z,1007.41
2022-11-05T11:43:22.239Z,1007.41
2022-11-05T11:44:22.046Z,1007.44
2022-11-05T11:45:22.058Z,1007.4
2022-11-05T11:46:22.053Z,1007.42
2022-11-05T11:47:22.056Z,1007.4
2022-11-05T11:48:22.061Z,1007.39
2022-11-05T11:49:22.055Z,1007.39
2022-11-05T11:50:22.052Z,1007.34
2022-11-05T11:51:22.200Z,1007.37
2022-11-05T11:52:22.049Z,1007.32
2022-11-05T11:53:22.116Z,1007.3
2022-11-05T11:54:24.848Z,1007.29
2022-11-05T11:55:22.081Z,1007.4
2022-11-05T11:56:22.050Z,1007.38
2022-11-05T11:57:22.052Z,1007.43
2022-11-05T11:58:22.049Z,1007.4
2022-11-05T11:59:40.818Z,1007.41
2022-11-05T12:00:22.072Z,1007.45
2022-11-05T12:01:22.107Z,1007.39
2022-11-05T12:02:22.134Z,1007.46
2022-11-05T12:03:22.124Z,1007.41
2022-11-05T12:04:22.067Z,1007.39
2022-11-05T12:05:22.142Z,1007.36
2022-11-05T12:06:22.146Z,1007.38
2022-11-05T12:07:22.062Z,1007.37
2022-11-05T12:08:22.051Z,1007.4